Hurlburt Field
KHRT : now visible

Airfield :











YOU CAN JOIN US ON...

 
LOGIN :

Register | Disclaimer

   EN    FR    IT 

 









Legend :    VFR   Marginal VFR   IFR   Intensive IFR   Very Intensive IFR
Visi :
Ceiling :
>= 8 km
>= 3000ft
5 to 8 km
1000 to 3000 ft
1500m to 5 km
500 to 1000 ft
800 to 1500m
200 to 500 ft
< 800m
< 200 ft
Symbols :   Thunderstorms  Fog  Heavy snow  Heavy precipitations  Wind > 20 kt






- Airport Elevation : 38 ft


KHRT - Hurlburt Field

CURRENT METAR :
  • 161156Z 00000KT 10SM FEW015 SCT100 25/23 A2995 RMK AO2A SLP144 T02450227 10260 20223 52005 $

EXPIRED METARs :
  • 161056Z 00000KT 10SM CLR 24/23 A2995 RMK AO2A SLP144 T02400226 $
  • 160956Z 00000KT 10SM CLR 23/22 A2995 RMK AO2A SLP144 T02320216 $

TAF TAF KHRT
Valid from the 16 at 02:00 until the 17 at 08:00 UTC


160200Z 1602/1708 23006KT 9999 FEW020 QNH2995INS
BECMG 1611/1612 30012G18KT 9999 SHRA SCT030 BKN110 QNH2993INS
TEMPO 1612/1613 4800 TSRA BKN025CB OVC100
BECMG 1614/1615 27012G23KT 9999 NSW FEW040 SCT120 QNH2992INS
BECMG 1617/1618 23012G20KT 9999 FEW040 QNH2994INS WND 34010G15KT AFT 1701 TX26/1618Z TN17/1708Z
KZJX FIR / North America



MET'MAP, your aeronautical weather chart ! - Copyright ORBIFLY December 2007 - Disclaimer

ORBIFLY MET'MAP TEAM :

Programming & Development : Alexandra Zaïnal
Concept & original design : Baudouin d'Aumeries
Assistance for programming : Marc-Olivier Méhu
Technical & hardware support : Manuel Goepfert

Contact : metmap@orbifly.com




SOURCES & CREDITS :

   NOAA       Earth
Advisory